createdAt,value
2023-02-05T00:00:14.560Z,32.38
2023-02-05T00:02:55.932Z,30.38
2023-02-05T00:04:16.898Z,36.83
2023-02-05T00:05:37.566Z,32.42
2023-02-05T00:06:58.249Z,32.23
2023-02-05T00:08:19.008Z,35.13
2023-02-05T00:09:39.760Z,36.15
2023-02-05T00:11:00.075Z,36.53
2023-02-05T00:12:20.718Z,34.80
2023-02-05T00:13:43.154Z,34.13
2023-02-05T00:15:04.026Z,32.75
2023-02-05T00:16:25.331Z,35.65
2023-02-05T00:19:06.224Z,32.22
2023-02-05T00:20:27.014Z,35.95
2023-02-05T00:21:49.759Z,32.50
2023-02-05T00:23:10.456Z,34.45
2023-02-05T00:24:30.973Z,37.27
2023-02-05T00:25:51.851Z,38.30
2023-02-05T00:27:12.543Z,33.38
2023-02-05T00:28:33.526Z,39.05
2023-02-05T00:29:55.318Z,31.73
2023-02-05T00:31:17.553Z,32.25
2023-02-05T00:32:38.357Z,28.80
2023-02-05T00:33:59.000Z,27.58
2023-02-05T00:35:19.394Z,29.15
2023-02-05T00:36:39.800Z,28.40
2023-02-05T00:38:00.568Z,23.70
2023-02-05T00:39:21.116Z,30.65
2023-02-05T00:40:41.934Z,26.67
2023-02-05T00:42:02.523Z,20.77
2023-02-05T00:43:23.368Z,22.83
2023-02-05T00:44:43.680Z,25.30
2023-02-05T00:46:06.133Z,18.70
2023-02-05T00:47:26.738Z,17.85
2023-02-05T00:48:47.585Z,17.33
2023-02-05T00:50:08.844Z,18.63
2023-02-05T00:51:29.224Z,14.25
2023-02-05T00:52:49.814Z,12.87
2023-02-05T00:54:10.626Z,15.55
2023-02-05T00:55:31.581Z,17.08
2023-02-05T00:56:52.503Z,12.35
2023-02-05T00:58:13.187Z,14.07
2023-02-05T00:59:33.968Z,13.00
2023-02-05T01:00:54.725Z,13.05
2023-02-05T01:02:16.790Z,10.60
2023-02-05T01:03:37.470Z,13.50
2023-02-05T01:04:58.188Z,14.15
2023-02-05T01:06:18.954Z,10.90
2023-02-05T01:07:39.638Z,13.40
2023-02-05T01:09:00.444Z,11.25
2023-02-05T01:10:21.262Z,16.80
2023-02-05T01:11:41.941Z,12.55
2023-02-05T01:13:02.460Z,12.82
2023-02-05T01:14:23.184Z,13.13
2023-02-05T01:15:43.805Z,8.30
2023-02-05T01:17:04.663Z,14.75
2023-02-05T01:18:26.823Z,12.73
2023-02-05T01:19:47.228Z,12.15
2023-02-05T01:21:08.038Z,9.70
2023-02-05T01:22:28.806Z,10.68
2023-02-05T01:23:49.335Z,9.18
2023-02-05T01:25:10.630Z,10.15
2023-02-05T01:26:31.227Z,9.52
2023-02-05T01:27:51.883Z,9.02
2023-02-05T01:29:12.457Z,7.47
2023-02-05T01:30:33.091Z,10.65
2023-02-05T01:31:54.292Z,7.68
2023-02-05T01:33:15.300Z,9.38
2023-02-05T01:34:37.466Z,9.57
2023-02-05T01:35:58.201Z,9.82
2023-02-05T01:37:18.772Z,13.27
2023-02-05T01:38:39.353Z,11.07
2023-02-05T01:40:00.127Z,9.73
2023-02-05T01:41:21.013Z,9.63
2023-02-05T01:42:42.104Z,9.25
2023-02-05T01:44:07.610Z,11.70
2023-02-05T01:46:04.293Z,9.98
2023-02-05T01:47:24.663Z,12.27
2023-02-05T01:48:48.550Z,6.50
2023-02-05T01:50:10.646Z,9.18
2023-02-05T01:51:31.983Z,14.18
2023-02-05T01:52:52.785Z,6.82
2023-02-05T01:54:14.289Z,10.48
2023-02-05T01:55:36.266Z,6.57
2023-02-05T01:57:01.298Z,12.27
2023-02-05T01:58:21.836Z,10.27
2023-02-05T01:59:43.173Z,13.02
2023-02-05T02:01:05.609Z,7.28
2023-02-05T02:02:26.603Z,8.80
2023-02-05T02:03:48.232Z,6.85
2023-02-05T02:05:13.193Z,10.07
2023-02-05T02:06:35.296Z,10.30
2023-02-05T02:07:55.976Z,8.68
2023-02-05T02:09:16.385Z,11.57
2023-02-05T02:10:37.074Z,6.68
2023-02-05T02:11:58.352Z,9.18
2023-02-05T02:13:19.699Z,11.68
2023-02-05T02:14:41.554Z,11.02
2023-02-05T02:16:02.816Z,13.05
2023-02-05T02:17:24.235Z,13.20
2023-02-05T02:18:45.347Z,15.93
2023-02-05T02:20:08.282Z,16.25
2023-02-05T02:22:11.619Z,13.98
2023-02-05T02:23:43.549Z,11.00
2023-02-05T02:25:28.639Z,12.38
2023-02-05T02:27:16.683Z,17.25
2023-02-05T02:28:42.470Z,12.85
2023-02-05T02:30:09.061Z,9.65
2023-02-05T02:31:31.863Z,18.35
2023-02-05T02:33:00.490Z,10.32
2023-02-05T02:34:26.182Z,24.25
2023-02-05T02:35:51.477Z,16.38
2023-02-05T02:37:17.469Z,15.95
2023-02-05T02:38:41.947Z,15.27
2023-02-05T02:40:08.620Z,13.90
2023-02-05T02:41:31.717Z,9.80
2023-02-05T02:42:56.122Z,14.77
2023-02-05T02:44:22.303Z,12.55
2023-02-05T02:45:47.849Z,17.40
2023-02-05T02:47:12.782Z,9.93
2023-02-05T02:48:35.109Z,12.25
2023-02-05T02:49:58.707Z,14.85
2023-02-05T02:51:20.423Z,17.52
2023-02-05T02:52:43.347Z,15.50
2023-02-05T02:54:06.266Z,17.52
2023-02-05T02:55:27.374Z,14.23
2023-02-05T02:56:49.311Z,12.30
2023-02-05T02:58:14.072Z,17.73
2023-02-05T02:59:38.102Z,17.15
2023-02-05T03:00:59.474Z,19.42
2023-02-05T03:02:20.650Z,16.05
2023-02-05T03:03:44.744Z,19.10
2023-02-05T03:05:10.196Z,15.73
2023-02-05T03:06:32.065Z,21.05
2023-02-05T03:09:17.994Z,18.45
2023-02-05T03:10:40.776Z,25.33
2023-02-05T03:12:01.448Z,26.58
2023-02-05T03:13:22.368Z,17.80
2023-02-05T03:14:44.470Z,21.58
2023-02-05T03:16:06.230Z,19.20
2023-02-05T03:17:27.215Z,19.75
2023-02-05T03:18:47.996Z,26.33
2023-02-05T03:20:11.490Z,23.08
2023-02-05T03:21:34.871Z,29.80
2023-02-05T03:22:56.195Z,21.13
2023-02-05T03:24:17.322Z,21.35
2023-02-05T03:25:38.000Z,19.92
2023-02-05T03:26:58.391Z,32.75
2023-02-05T03:28:19.075Z,19.70
2023-02-05T03:29:40.800Z,29.35
2023-02-05T03:31:08.030Z,26.13
2023-02-05T03:32:36.587Z,22.90
2023-02-05T03:34:07.255Z,20.85
2023-02-05T03:35:32.536Z,29.88
2023-02-05T03:37:00.243Z,26.83
2023-02-05T03:38:29.963Z,21.27
2023-02-05T03:39:59.970Z,22.73
2023-02-05T03:41:26.704Z,28.05
2023-02-05T03:42:53.689Z,29.92
2023-02-05T03:44:24.390Z,30.85
2023-02-05T03:45:49.421Z,33.13
2023-02-05T03:47:16.427Z,31.92
2023-02-05T03:48:45.311Z,29.00
2023-02-05T03:50:13.352Z,24.67
2023-02-05T03:51:38.280Z,29.58
2023-02-05T03:53:03.637Z,22.80
2023-02-05T03:54:32.016Z,26.50
2023-02-05T03:55:58.778Z,30.75
2023-02-05T03:57:24.107Z,27.67
2023-02-05T03:58:47.161Z,22.27
2023-02-05T04:00:09.252Z,28.40
2023-02-05T04:01:29.729Z,31.80
2023-02-05T04:02:52.085Z,25.20
2023-02-05T04:04:13.115Z,22.48
2023-02-05T04:05:33.995Z,24.10
2023-02-05T04:06:54.620Z,28.13
2023-02-05T04:08:15.146Z,33.55
2023-02-05T04:09:35.923Z,36.03
2023-02-05T04:10:56.962Z,33.53
2023-02-05T04:12:17.474Z,25.88
2023-02-05T04:13:38.322Z,25.52
2023-02-05T04:14:59.187Z,23.55
2023-02-05T04:16:19.721Z,32.03
2023-02-05T04:17:40.544Z,24.10
2023-02-05T04:19:02.555Z,27.50
2023-02-05T04:20:23.313Z,22.45
2023-02-05T04:21:44.214Z,26.02
2023-02-05T04:23:05.003Z,27.00
2023-02-05T04:24:25.529Z,22.73
2023-02-05T04:25:45.863Z,22.50
2023-02-05T04:27:06.299Z,23.23
2023-02-05T04:28:26.897Z,22.35
2023-02-05T04:29:47.883Z,24.10
2023-02-05T04:31:08.933Z,18.23
2023-02-05T04:32:29.442Z,16.63
2023-02-05T04:33:50.007Z,11.15
2023-02-05T04:35:12.019Z,10.52
2023-02-05T04:36:32.930Z,9.52
2023-02-05T04:37:53.733Z,13.18
2023-02-05T04:39:14.373Z,12.77
2023-02-05T04:40:34.909Z,17.77
2023-02-05T04:41:55.425Z,13.25
2023-02-05T04:43:16.118Z,10.38
2023-02-05T04:44:36.859Z,16.23
2023-02-05T04:45:57.561Z,17.52
2023-02-05T04:47:18.180Z,18.52
2023-02-05T04:48:39.399Z,15.30
2023-02-05T04:49:59.809Z,16.23
2023-02-05T04:51:21.633Z,18.00
2023-02-05T04:52:42.562Z,23.63
2023-02-05T04:54:03.155Z,22.27
2023-02-05T04:55:23.950Z,30.30
2023-02-05T04:56:44.621Z,20.90
2023-02-05T04:58:05.226Z,27.00
2023-02-05T04:59:25.814Z,21.83
2023-02-05T05:00:46.523Z,30.30
2023-02-05T05:02:07.304Z,31.77
2023-02-05T05:03:28.163Z,29.58
2023-02-05T05:04:48.672Z,19.67
2023-02-05T05:06:09.623Z,27.27
2023-02-05T05:07:31.567Z,30.92
2023-02-05T05:08:52.290Z,42.88
2023-02-05T05:10:13.077Z,31.88
2023-02-05T05:11:33.652Z,22.00
2023-02-05T05:12:54.138Z,36.45
2023-02-05T05:14:14.463Z,43.55
2023-02-05T05:15:35.641Z,38.60
2023-02-05T05:16:56.699Z,46.20
2023-02-05T05:18:17.353Z,39.90
2023-02-05T05:19:37.923Z,33.33
2023-02-05T05:20:58.697Z,39.60
2023-02-05T05:22:19.425Z,37.08
2023-02-05T05:23:41.585Z,32.05
2023-02-05T05:25:02.067Z,44.60
2023-02-05T05:26:22.854Z,50.33
2023-02-05T05:27:43.387Z,38.45
2023-02-05T05:29:04.022Z,38.85
2023-02-05T05:30:24.726Z,40.83
2023-02-05T05:31:45.641Z,34.13
2023-02-05T05:33:06.530Z,31.38
2023-02-05T05:34:27.146Z,35.67
2023-02-05T05:35:47.658Z,29.13
2023-02-05T05:37:08.288Z,25.38
2023-02-05T05:38:28.737Z,26.48
2023-02-05T05:39:51.065Z,18.70
2023-02-05T05:41:18.717Z,19.92
2023-02-05T05:42:39.254Z,22.40
2023-02-05T05:44:00.105Z,31.92
2023-02-05T05:45:20.929Z,28.55
2023-02-05T05:46:41.628Z,26.17
2023-02-05T05:48:02.262Z,25.55
2023-02-05T05:49:22.797Z,24.73
2023-02-05T05:50:43.666Z,30.88
2023-02-05T05:52:04.849Z,21.88
2023-02-05T05:53:25.532Z,38.08
2023-02-05T05:54:46.271Z,18.92
2023-02-05T05:56:08.487Z,29.70
2023-02-05T05:57:28.864Z,28.38
2023-02-05T05:58:50.081Z,28.00
2023-02-05T06:00:12.600Z,31.40
2023-02-05T06:01:33.176Z,21.73
2023-02-05T06:02:54.083Z,23.15
2023-02-05T06:04:14.743Z,32.50
2023-02-05T06:05:35.849Z,30.88
2023-02-05T06:06:56.468Z,28.52
2023-02-05T06:08:17.302Z,23.30
2023-02-05T06:09:37.970Z,25.88
2023-02-05T06:10:58.808Z,22.83
2023-02-05T06:12:20.771Z,35.13
2023-02-05T06:13:41.581Z,27.42
2023-02-05T06:15:02.358Z,25.65
2023-02-05T06:16:23.297Z,34.17
2023-02-05T06:17:43.776Z,32.05
2023-02-05T06:19:04.194Z,27.10
2023-02-05T06:20:24.834Z,27.88
2023-02-05T06:21:45.512Z,29.75
2023-02-05T06:23:06.310Z,40.30
2023-02-05T06:24:29.047Z,32.42
2023-02-05T06:25:50.836Z,38.00
2023-02-05T06:28:33.366Z,38.60
2023-02-05T06:29:53.980Z,34.28
2023-02-05T06:31:14.856Z,58.08
2023-02-05T06:32:35.517Z,35.33
2023-02-05T06:33:56.105Z,42.78
2023-02-05T06:35:16.889Z,34.83
2023-02-05T06:36:37.666Z,37.60
2023-02-05T06:37:58.378Z,28.70
2023-02-05T06:39:19.151Z,34.80
2023-02-05T06:40:39.630Z,30.85
2023-02-05T06:42:00.131Z,34.92
2023-02-05T06:43:20.717Z,43.15
2023-02-05T06:44:42.966Z,34.92
2023-02-05T06:46:03.722Z,44.60
2023-02-05T06:47:24.498Z,37.03
2023-02-05T06:48:45.068Z,33.22
2023-02-05T06:50:05.889Z,38.38
2023-02-05T06:51:26.709Z,44.47
2023-02-05T06:52:47.135Z,40.13
2023-02-05T06:54:07.874Z,31.70
2023-02-05T06:55:28.622Z,34.45
2023-02-05T06:56:49.291Z,43.50
2023-02-05T06:58:09.724Z,32.67
2023-02-05T06:59:30.532Z,30.45
2023-02-05T07:00:52.737Z,39.08
2023-02-05T07:02:13.923Z,26.73
2023-02-05T07:03:34.368Z,35.80
2023-02-05T07:04:54.892Z,33.25
2023-02-05T07:06:15.513Z,32.55
2023-02-05T07:07:35.892Z,37.17
2023-02-05T07:08:56.506Z,40.77
2023-02-05T07:10:17.393Z,46.92
2023-02-05T07:11:37.918Z,41.17
2023-02-05T07:12:58.727Z,33.37
2023-02-05T07:14:19.099Z,46.92
2023-02-05T07:15:39.830Z,48.70
2023-02-05T07:17:01.955Z,26.35
2023-02-05T07:18:22.581Z,48.25
2023-02-05T07:19:43.263Z,36.50
2023-02-05T07:21:05.731Z,43.65
2023-02-05T07:22:26.359Z,47.78
2023-02-05T07:23:46.761Z,37.47
2023-02-05T07:25:08.224Z,45.75
2023-02-05T07:26:28.646Z,43.08
2023-02-05T07:27:49.128Z,49.92
2023-02-05T07:29:09.764Z,42.85
2023-02-05T07:30:30.507Z,44.20
2023-02-05T07:31:51.610Z,48.10
2023-02-05T07:33:13.539Z,33.33
2023-02-05T07:34:33.910Z,41.33
2023-02-05T07:35:54.520Z,33.47
2023-02-05T07:37:15.134Z,49.33
2023-02-05T07:38:36.037Z,44.10
2023-02-05T07:39:56.626Z,29.17
2023-02-05T07:41:17.737Z,39.08
2023-02-05T07:42:38.471Z,35.17
2023-02-05T07:43:59.032Z,49.58
2023-02-05T07:45:19.673Z,47.80
2023-02-05T07:46:40.527Z,54.77
2023-02-05T07:48:01.208Z,34.40
2023-02-05T07:49:23.375Z,43.33
2023-02-05T07:50:44.404Z,38.70
2023-02-05T07:52:05.428Z,38.65
2023-02-05T07:53:26.984Z,51.70
2023-02-05T07:54:47.730Z,39.67
2023-02-05T07:56:08.427Z,45.25
2023-02-05T07:57:29.249Z,46.63
2023-02-05T07:58:50.007Z,48.97
2023-02-05T08:00:12.025Z,47.83
2023-02-05T08:01:32.566Z,40.70
2023-02-05T08:02:53.192Z,49.13
2023-02-05T08:04:14.021Z,48.70
2023-02-05T08:05:36.604Z,43.78
2023-02-05T08:06:57.182Z,59.20
2023-02-05T08:08:17.961Z,47.13
2023-02-05T08:09:39.203Z,58.45
2023-02-05T08:11:01.400Z,50.63
2023-02-05T08:12:21.801Z,42.88
2023-02-05T08:13:42.649Z,43.17
2023-02-05T08:15:03.884Z,56.08
2023-02-05T08:16:24.349Z,71.13
2023-02-05T08:17:44.776Z,61.55
2023-02-05T08:19:05.220Z,60.50
2023-02-05T08:20:25.627Z,57.67
2023-02-05T08:21:47.660Z,45.67
2023-02-05T08:23:08.110Z,49.65
2023-02-05T08:24:29.029Z,57.03
2023-02-05T08:25:53.356Z,50.88
2023-02-05T08:27:13.835Z,59.35
2023-02-05T08:28:34.517Z,60.30
2023-02-05T08:29:55.203Z,61.90
2023-02-05T08:31:17.644Z,52.97
2023-02-05T08:32:38.085Z,73.30
2023-02-05T08:33:58.678Z,55.15
2023-02-05T08:35:19.365Z,66.93
2023-02-05T08:36:40.163Z,63.93
2023-02-05T08:38:02.336Z,57.97
2023-02-05T08:39:23.033Z,66.20
2023-02-05T08:40:43.627Z,47.53
2023-02-05T08:42:04.295Z,56.38
2023-02-05T08:43:24.766Z,55.35
2023-02-05T08:44:45.791Z,59.40
2023-02-05T08:46:06.351Z,62.05
2023-02-05T08:47:27.489Z,45.23
2023-02-05T08:48:48.390Z,56.33
2023-02-05T08:50:09.434Z,74.50
2023-02-05T08:51:30.105Z,55.28
2023-02-05T08:52:51.200Z,60.83
2023-02-05T08:54:13.607Z,55.13
2023-02-05T08:55:34.367Z,69.07
2023-02-05T08:56:55.522Z,65.13
2023-02-05T08:58:15.996Z,60.88
2023-02-05T08:59:37.026Z,53.53
2023-02-05T09:01:01.121Z,77.32
2023-02-05T09:02:21.519Z,47.40
2023-02-05T09:03:42.424Z,53.17
2023-02-05T09:05:08.949Z,65.47
2023-02-05T09:06:29.859Z,58.72
2023-02-05T09:07:50.398Z,59.03
2023-02-05T09:09:13.128Z,57.58
2023-02-05T09:10:33.698Z,57.72
2023-02-05T09:11:54.288Z,55.87
2023-02-05T09:13:14.939Z,55.00
2023-02-05T09:14:35.433Z,58.22
2023-02-05T09:15:56.108Z,59.55
2023-02-05T09:17:18.367Z,63.00
2023-02-05T09:18:39.289Z,60.90
2023-02-05T09:19:59.943Z,69.53
2023-02-05T09:21:20.641Z,59.15
2023-02-05T09:22:41.291Z,60.55
2023-02-05T09:24:01.698Z,59.65
2023-02-05T09:25:23.792Z,61.60
2023-02-05T09:26:44.157Z,48.60
2023-02-05T09:28:05.272Z,71.45
2023-02-05T09:29:26.060Z,67.97
2023-02-05T09:30:46.864Z,67.50
2023-02-05T09:32:07.679Z,50.25
2023-02-05T09:33:28.326Z,65.70
2023-02-05T09:34:49.309Z,49.55
2023-02-05T09:36:12.684Z,57.27
2023-02-05T09:37:33.402Z,63.40
2023-02-05T09:39:05.033Z,58.13
2023-02-05T09:40:39.236Z,68.43
2023-02-05T09:42:03.468Z,53.00
2023-02-05T09:43:39.214Z,72.97
2023-02-05T09:45:16.246Z,62.45
2023-02-05T09:46:42.767Z,61.67
2023-02-05T09:48:13.499Z,64.78
2023-02-05T09:49:40.218Z,68.13
2023-02-05T09:51:01.311Z,60.97
2023-02-05T09:52:33.569Z,66.53
2023-02-05T09:53:57.849Z,55.25
2023-02-05T09:55:21.466Z,72.05
2023-02-05T09:56:44.107Z,58.17
2023-02-05T09:58:07.158Z,60.97
2023-02-05T09:59:28.534Z,64.15
2023-02-05T10:00:50.148Z,59.10
2023-02-05T10:02:22.095Z,57.28
2023-02-05T10:03:43.868Z,73.10
2023-02-05T10:05:11.896Z,59.90
2023-02-05T10:07:15.331Z,56.28
2023-02-05T10:08:41.574Z,52.33
2023-02-05T10:10:19.838Z,69.95
2023-02-05T10:11:54.267Z,71.07
2023-02-05T10:13:27.917Z,59.72
2023-02-05T10:14:59.334Z,54.70
2023-02-05T10:16:41.803Z,62.50
2023-02-05T10:18:12.013Z,58.25
2023-02-05T10:20:03.307Z,47.17
2023-02-05T10:21:36.904Z,58.45
2023-02-05T10:23:07.873Z,61.00
2023-02-05T10:24:42.713Z,46.47
2023-02-05T10:26:09.817Z,50.13
2023-02-05T10:27:38.396Z,57.42
2023-02-05T10:29:11.674Z,63.53
2023-02-05T10:30:37.967Z,58.60
2023-02-05T10:32:10.213Z,50.63
2023-02-05T10:33:41.693Z,64.97
2023-02-05T10:35:12.518Z,69.00
2023-02-05T10:36:35.291Z,64.20
2023-02-05T10:37:57.766Z,62.80
2023-02-05T10:39:21.299Z,61.70
2023-02-05T10:40:42.993Z,63.55
2023-02-05T10:44:50.637Z,62.42
2023-02-05T10:46:12.836Z,60.90
2023-02-05T10:47:46.199Z,54.50
2023-02-05T10:49:10.130Z,62.95
2023-02-05T10:50:43.588Z,66.68
2023-02-05T10:52:04.367Z,58.20
2023-02-05T10:53:26.154Z,59.67
2023-02-05T10:54:47.303Z,57.50
2023-02-05T10:56:08.496Z,58.45
2023-02-05T10:57:31.606Z,48.78
2023-02-05T10:58:58.341Z,78.28
2023-02-05T11:00:21.270Z,60.55
2023-02-05T11:01:42.173Z,46.40
2023-02-05T11:03:04.976Z,51.63
2023-02-05T11:04:33.636Z,55.45
2023-02-05T11:05:54.384Z,52.25
2023-02-05T11:07:25.347Z,65.90
2023-02-05T11:08:46.415Z,60.65
2023-02-05T11:10:14.619Z,52.78
2023-02-05T11:11:37.195Z,54.63
2023-02-05T11:13:03.226Z,57.25
2023-02-05T11:14:34.022Z,44.92
2023-02-05T11:15:59.294Z,61.17
2023-02-05T11:17:21.937Z,50.08
2023-02-05T11:18:45.392Z,63.13
2023-02-05T11:20:07.806Z,58.28
2023-02-05T11:21:46.882Z,49.92
2023-02-05T11:23:14.509Z,60.65
2023-02-05T11:24:36.326Z,51.38
2023-02-05T11:25:58.931Z,49.70
2023-02-05T11:27:30.934Z,49.70
2023-02-05T11:28:51.754Z,59.42
2023-02-05T11:30:49.722Z,71.15
2023-02-05T11:32:12.769Z,54.03
2023-02-05T11:33:34.390Z,56.42
2023-02-05T11:35:09.204Z,56.08
2023-02-05T11:36:30.078Z,56.42
2023-02-05T11:37:59.705Z,58.58
2023-02-05T11:39:29.996Z,52.72
2023-02-05T11:40:54.285Z,54.60
2023-02-05T11:42:20.078Z,50.78
2023-02-05T11:43:45.164Z,59.10
2023-02-05T11:45:15.037Z,58.10
2023-02-05T11:46:43.312Z,50.30
2023-02-05T11:48:06.532Z,47.92
2023-02-05T11:49:32.931Z,47.38
2023-02-05T11:50:53.510Z,57.95
2023-02-05T11:52:15.496Z,52.42
2023-02-05T11:54:56.490Z,50.13
2023-02-05T11:56:22.802Z,50.25
2023-02-05T11:57:44.878Z,65.70
2023-02-05T11:59:16.889Z,52.60
2023-02-05T12:00:50.774Z,58.90
2023-02-05T12:02:27.836Z,49.25
2023-02-05T12:03:58.362Z,56.05
2023-02-05T12:05:20.341Z,43.30
2023-02-05T12:06:45.855Z,47.38
2023-02-05T12:08:10.573Z,51.15
2023-02-05T12:09:31.564Z,48.38
2023-02-05T12:10:55.724Z,44.17
2023-02-05T12:12:19.981Z,41.17
2023-02-05T12:13:50.647Z,47.95
2023-02-05T12:15:17.340Z,42.42
2023-02-05T12:16:46.300Z,58.38
2023-02-05T12:18:17.978Z,39.65
2023-02-05T12:19:45.548Z,43.47
2023-02-05T12:21:14.243Z,47.50
2023-02-05T12:22:52.152Z,60.83
2023-02-05T12:24:55.359Z,45.30
2023-02-05T12:26:34.257Z,47.80
2023-02-05T12:28:09.723Z,51.55
2023-02-05T12:29:47.381Z,40.22
2023-02-05T12:31:19.095Z,52.83
2023-02-05T12:32:45.337Z,45.60
2023-02-05T12:34:19.156Z,53.78
2023-02-05T12:35:51.220Z,50.55
2023-02-05T12:37:18.633Z,51.22
2023-02-05T12:38:51.705Z,48.65
2023-02-05T12:40:21.240Z,48.70
2023-02-05T12:41:49.187Z,59.72
2023-02-05T12:43:21.756Z,48.45
2023-02-05T12:44:51.891Z,55.70
2023-02-05T12:46:36.187Z,44.10
2023-02-05T12:48:10.133Z,45.28
2023-02-05T12:49:50.189Z,47.53
2023-02-05T12:51:25.301Z,50.72
2023-02-05T12:52:55.964Z,43.47
2023-02-05T12:54:38.294Z,48.65
2023-02-05T12:56:19.447Z,51.08
2023-02-05T12:57:42.562Z,45.20
2023-02-05T12:59:11.436Z,39.50
2023-02-05T13:00:38.166Z,45.88
2023-02-05T13:02:04.394Z,44.03
2023-02-05T13:03:29.200Z,49.15
2023-02-05T13:05:06.964Z,35.67
2023-02-05T13:06:31.283Z,45.13
2023-02-05T13:07:56.733Z,53.63
2023-02-05T13:09:20.849Z,44.63
2023-02-05T13:10:46.138Z,44.25
2023-02-05T13:12:10.125Z,38.60
2023-02-05T13:13:35.087Z,35.65
2023-02-05T13:15:01.366Z,40.03
2023-02-05T13:16:23.600Z,54.88
2023-02-05T13:17:52.385Z,48.60
2023-02-05T13:19:22.337Z,45.15
2023-02-05T13:20:46.388Z,41.42
2023-02-05T13:22:13.756Z,51.70
2023-02-05T13:23:35.844Z,44.75
2023-02-05T13:25:02.364Z,48.85
2023-02-05T13:26:28.771Z,48.95
2023-02-05T13:27:53.168Z,50.45
2023-02-05T13:29:15.905Z,53.03
2023-02-05T13:30:40.251Z,35.70
2023-02-05T13:32:14.765Z,40.45
2023-02-05T13:33:36.397Z,40.22
2023-02-05T13:34:57.179Z,60.53
2023-02-05T13:36:46.134Z,41.28
2023-02-05T13:38:22.373Z,47.08
2023-02-05T13:40:11.089Z,63.17
2023-02-05T13:41:51.465Z,57.33
2023-02-05T13:43:41.859Z,47.30
2023-02-05T13:45:27.134Z,56.10
2023-02-05T13:47:09.733Z,48.08
2023-02-05T13:49:13.050Z,53.60
2023-02-05T13:50:55.147Z,55.55
2023-02-05T13:52:53.130Z,44.35
2023-02-05T13:54:56.430Z,48.75
2023-02-05T13:56:46.353Z,49.92
2023-02-05T13:58:19.097Z,48.40
2023-02-05T13:59:42.307Z,47.80
2023-02-05T14:01:14.735Z,61.17
2023-02-05T14:02:43.441Z,58.83
2023-02-05T14:04:07.282Z,58.28
2023-02-05T14:05:29.560Z,55.20
2023-02-05T14:06:59.076Z,48.60
2023-02-05T14:08:23.313Z,54.38
2023-02-05T14:09:49.677Z,62.45
2023-02-05T14:11:10.819Z,46.08
2023-02-05T14:12:36.590Z,54.45
2023-02-05T14:14:20.955Z,48.92
2023-02-05T14:15:42.535Z,69.22
2023-02-05T14:17:44.491Z,57.15
2023-02-05T14:19:17.632Z,48.95
2023-02-05T14:20:39.852Z,52.17
2023-02-05T14:22:03.924Z,55.58
2023-02-05T14:23:53.898Z,55.33
2023-02-05T14:26:03.300Z,56.65
2023-02-05T14:27:50.409Z,56.97
2023-02-05T14:29:39.174Z,55.22
2023-02-05T14:31:00.931Z,49.70
2023-02-05T14:32:55.250Z,59.20
2023-02-05T14:34:49.766Z,51.00
2023-02-05T14:36:38.790Z,52.58
2023-02-05T14:38:01.021Z,54.05
2023-02-05T14:39:27.537Z,58.67
2023-02-05T14:41:01.823Z,50.80
2023-02-05T14:42:22.479Z,55.45
2023-02-05T14:43:46.014Z,51.58
2023-02-05T14:45:11.846Z,56.65
2023-02-05T14:46:35.245Z,62.58
2023-02-05T14:47:56.688Z,61.78
2023-02-05T14:50:41.856Z,50.38
2023-02-05T14:52:04.913Z,56.75
2023-02-05T14:53:26.215Z,64.78
2023-02-05T14:54:48.987Z,53.10
2023-02-05T14:56:23.945Z,54.75
2023-02-05T14:57:48.435Z,59.85
2023-02-05T14:59:20.343Z,51.42
2023-02-05T15:00:42.541Z,58.55
2023-02-05T15:02:03.349Z,54.60
2023-02-05T15:03:30.985Z,57.03
2023-02-05T15:04:51.654Z,56.08
2023-02-05T15:06:15.463Z,61.45
2023-02-05T15:07:36.170Z,55.42
2023-02-05T15:09:02.224Z,61.17
2023-02-05T15:10:27.763Z,53.13
2023-02-05T15:12:03.537Z,52.20
2023-02-05T15:13:24.330Z,71.55
2023-02-05T15:14:53.029Z,53.17
2023-02-05T15:16:20.026Z,54.22
2023-02-05T15:17:50.246Z,60.83
2023-02-05T15:19:11.868Z,56.03
2023-02-05T15:20:33.520Z,58.30
2023-02-05T15:21:54.495Z,51.47
2023-02-05T15:23:21.546Z,63.63
2023-02-05T15:24:43.591Z,54.40
2023-02-05T15:27:31.709Z,55.93
2023-02-05T15:28:58.047Z,71.47
2023-02-05T15:30:24.310Z,66.82
2023-02-05T15:31:46.638Z,60.25
2023-02-05T15:33:10.705Z,62.17
2023-02-05T15:34:34.947Z,78.00
2023-02-05T15:35:59.187Z,56.40
2023-02-05T15:37:23.565Z,53.55
2023-02-05T15:38:48.592Z,52.45
2023-02-05T15:40:15.827Z,68.13
2023-02-05T15:41:37.643Z,61.22
2023-02-05T15:43:01.947Z,68.10
2023-02-05T15:44:29.017Z,55.65
2023-02-05T15:45:53.038Z,59.55
2023-02-05T15:47:18.303Z,75.22
2023-02-05T15:48:40.518Z,57.58
2023-02-05T15:50:01.281Z,57.53
2023-02-05T15:51:28.541Z,59.38
2023-02-05T15:52:49.019Z,47.67
2023-02-05T15:54:13.859Z,56.50
2023-02-05T15:55:34.829Z,57.13
2023-02-05T15:56:55.648Z,46.00
2023-02-05T15:58:20.181Z,51.90
2023-02-05T15:59:40.892Z,52.67
2023-02-05T16:01:03.601Z,53.53
2023-02-05T16:02:26.186Z,44.92
2023-02-05T16:03:46.676Z,42.00
2023-02-05T16:05:18.392Z,44.15
2023-02-05T16:07:59.385Z,57.80
2023-02-05T16:09:21.964Z,43.38
2023-02-05T16:10:52.195Z,52.53
2023-02-05T16:12:13.536Z,53.15
2023-02-05T16:13:34.266Z,54.25
2023-02-05T16:14:59.583Z,50.97
2023-02-05T16:16:24.408Z,43.53
2023-02-05T16:17:48.226Z,48.70
2023-02-05T16:19:13.150Z,50.38
2023-02-05T16:20:37.106Z,46.30
2023-02-05T16:22:00.702Z,54.85
2023-02-05T16:23:25.522Z,47.05
2023-02-05T16:24:46.584Z,45.97
2023-02-05T16:26:12.500Z,47.28
2023-02-05T16:27:39.190Z,52.53
2023-02-05T16:29:02.342Z,44.20
2023-02-05T16:30:29.856Z,46.80
2023-02-05T16:31:58.789Z,53.53
2023-02-05T16:33:29.170Z,49.63
2023-02-05T16:34:50.070Z,44.58
2023-02-05T16:36:16.805Z,53.55
2023-02-05T16:37:37.620Z,51.30
2023-02-05T16:39:00.765Z,51.38
2023-02-05T16:40:30.958Z,60.05
2023-02-05T16:42:04.919Z,55.10
2023-02-05T16:43:31.585Z,56.50
2023-02-05T16:45:05.043Z,69.40
2023-02-05T16:46:27.754Z,56.05
2023-02-05T16:48:20.640Z,183.40
2023-02-05T16:49:45.119Z,79.45
2023-02-05T16:51:05.987Z,70.55
2023-02-05T16:52:31.524Z,72.43
2023-02-05T16:53:52.016Z,75.25
2023-02-05T16:55:40.757Z,77.78
2023-02-05T16:57:07.439Z,54.40
2023-02-05T16:58:31.587Z,55.78
2023-02-05T16:59:53.685Z,57.40
2023-02-05T17:01:14.571Z,61.08
2023-02-05T17:02:37.048Z,71.07
2023-02-05T17:03:59.224Z,59.75
2023-02-05T17:05:24.148Z,58.67
2023-02-05T17:06:45.012Z,68.43
2023-02-05T17:08:07.524Z,75.47
2023-02-05T17:09:33.903Z,75.40
2023-02-05T17:10:56.879Z,66.50
2023-02-05T17:12:37.101Z,66.93
2023-02-05T17:14:21.234Z,86.25
2023-02-05T17:15:41.769Z,85.63
2023-02-05T17:17:03.884Z,75.82
2023-02-05T17:18:29.616Z,60.60
2023-02-05T17:20:07.492Z,52.90
2023-02-05T17:21:29.942Z,66.45
2023-02-05T17:23:10.038Z,56.45
2023-02-05T17:24:30.772Z,57.58
2023-02-05T17:25:53.091Z,65.25
2023-02-05T17:27:14.745Z,77.28
2023-02-05T17:28:35.295Z,66.53
2023-02-05T17:29:56.440Z,66.25
2023-02-05T17:31:16.868Z,84.30
2023-02-05T17:32:37.866Z,75.20
2023-02-05T17:33:59.041Z,76.30
2023-02-05T17:35:21.598Z,71.63
2023-02-05T17:36:42.380Z,65.07
2023-02-05T17:38:03.148Z,56.75
2023-02-05T17:39:24.296Z,86.63
2023-02-05T17:40:44.904Z,78.00
2023-02-05T17:42:06.944Z,120.90
2023-02-05T17:43:27.706Z,77.85
2023-02-05T17:44:48.474Z,91.85
2023-02-05T17:46:12.237Z,90.47
2023-02-05T17:47:32.762Z,77.35
2023-02-05T17:48:53.352Z,75.60
2023-02-05T17:50:14.116Z,76.80
2023-02-05T17:51:36.283Z,81.47
2023-02-05T17:52:57.057Z,88.78
2023-02-05T17:54:19.267Z,63.95
2023-02-05T17:55:39.975Z,64.30
2023-02-05T17:57:10.773Z,71.72
2023-02-05T17:58:31.177Z,79.18
2023-02-05T17:59:51.855Z,61.03
2023-02-05T18:01:12.526Z,66.93
2023-02-05T18:02:33.526Z,64.40
2023-02-05T18:03:54.062Z,61.97
2023-02-05T18:05:14.909Z,81.85
2023-02-05T18:06:37.421Z,70.70
2023-02-05T18:07:58.620Z,59.38
2023-02-05T18:09:19.269Z,65.20
2023-02-05T18:10:40.064Z,59.97
2023-02-05T18:12:00.914Z,67.40
2023-02-05T18:13:21.861Z,53.70
2023-02-05T18:14:42.463Z,68.60
2023-02-05T18:16:03.235Z,63.83
2023-02-05T18:17:24.136Z,58.40
2023-02-05T18:18:44.991Z,67.40
2023-02-05T18:20:06.283Z,63.53
2023-02-05T18:21:27.085Z,69.65
2023-02-05T18:22:49.367Z,55.75
2023-02-05T18:24:09.880Z,66.28